createdAt,value
2018-12-03T00:00:41.656Z,8.2
2018-12-03T00:01:41.952Z,8.1
2018-12-03T00:02:41.870Z,8.1
2018-12-03T00:03:41.767Z,8.1
2018-12-03T00:04:41.648Z,8.1
2018-12-03T00:05:41.537Z,8.1
2018-12-03T00:06:41.465Z,8.1
2018-12-03T00:07:41.352Z,8
2018-12-03T00:08:41.226Z,8
2018-12-03T00:09:41.115Z,8
2018-12-03T00:10:41.000Z,8
2018-12-03T00:11:41.296Z,8
2018-12-03T00:12:41.198Z,8
2018-12-03T00:13:41.087Z,8
2018-12-03T00:14:40.972Z,7.9
2018-12-03T00:15:40.869Z,7.9
2018-12-03T00:16:40.757Z,7.9
2018-12-03T00:17:40.685Z,7.9
2018-12-03T00:18:40.578Z,7.9
2018-12-03T00:19:40.466Z,7.8
2018-12-03T00:20:40.344Z,7.9
2018-12-03T00:21:40.678Z,7.8
2018-12-03T00:22:40.636Z,7.9
2018-12-03T00:23:40.529Z,7.8
2018-12-03T00:24:40.409Z,7.9
2018-12-03T00:25:40.286Z,7.9
2018-12-03T00:26:40.160Z,7.9
2018-12-03T00:27:40.074Z,7.9
2018-12-03T00:28:39.954Z,7.8
2018-12-03T00:29:39.832Z,7.8
2018-12-03T00:30:39.717Z,7.8
2018-12-03T00:31:40.017Z,7.8
2018-12-03T00:32:39.908Z,7.8
2018-12-03T00:33:39.805Z,7.9
2018-12-03T00:34:39.685Z,7.9
2018-12-03T00:35:39.575Z,7.9
2018-12-03T00:36:39.449Z,7.9
2018-12-03T00:37:39.359Z,7.9
2018-12-03T00:38:39.249Z,7.9
2018-12-03T00:39:39.130Z,8
2018-12-03T00:40:39.004Z,8
2018-12-03T00:41:39.335Z,8
2018-12-03T00:42:39.225Z,7.9
2018-12-03T00:43:39.137Z,8
2018-12-03T00:44:39.034Z,8
2018-12-03T00:45:38.921Z,8
2018-12-03T00:46:38.800Z,8
2018-12-03T00:47:38.682Z,8
2018-12-03T00:48:38.574Z,8
2018-12-03T00:49:38.471Z,8
2018-12-03T00:50:38.345Z,8
2018-12-03T00:51:39.662Z,8
2018-12-03T00:52:39.551Z,8.1
2018-12-03T00:53:39.449Z,8.1
2018-12-03T00:54:39.361Z,8.1
2018-12-03T00:55:39.249Z,8.1
2018-12-03T00:56:39.136Z,8.2
2018-12-03T00:57:39.025Z,8.2
2018-12-03T00:58:38.901Z,8.3
2018-12-03T00:59:38.819Z,8.4
2018-12-03T01:00:38.703Z,8.5
2018-12-03T01:01:39.015Z,8.5
2018-12-03T01:02:38.908Z,8.5
2018-12-03T01:03:38.798Z,8.6
2018-12-03T01:04:38.687Z,8.6
2018-12-03T01:05:38.615Z,8.5
2018-12-03T01:06:38.503Z,8.5
2018-12-03T01:07:38.369Z,8.6
2018-12-03T01:08:38.268Z,8.5
2018-12-03T01:09:38.147Z,8.5
2018-12-03T01:10:38.043Z,8.4
2018-12-03T01:11:38.351Z,8.4
2018-12-03T01:12:38.247Z,8.4
2018-12-03T01:13:38.125Z,8.4
2018-12-03T01:14:38.027Z,8.4
2018-12-03T01:15:37.945Z,8.4
2018-12-03T01:16:37.817Z,8.3
2018-12-03T01:17:37.698Z,8.4
2018-12-03T01:18:37.587Z,8.3
2018-12-03T01:19:37.470Z,8.3
2018-12-03T01:20:37.379Z,8.3
2018-12-03T01:21:37.679Z,8.3
2018-12-03T01:22:37.619Z,8.3
2018-12-03T01:23:37.511Z,8.2
2018-12-03T01:24:37.383Z,8.2
2018-12-03T01:25:37.269Z,8.2
2018-12-03T01:26:37.195Z,8.2
2018-12-03T01:27:37.085Z,8.2
2018-12-03T01:28:36.953Z,8.2
2018-12-03T01:29:36.826Z,8.1
2018-12-03T01:30:36.709Z,8.1
2018-12-03T01:31:37.059Z,8.2
2018-12-03T01:32:36.964Z,8.2
2018-12-03T01:33:36.849Z,8.2
2018-12-03T01:34:36.725Z,8.2
2018-12-03T01:35:36.618Z,8.2
2018-12-03T01:36:36.523Z,8.1
2018-12-03T01:37:36.412Z,8.2
2018-12-03T01:38:36.445Z,8.2
2018-12-03T01:39:36.321Z,8.2
2018-12-03T01:40:36.209Z,8.1
2018-12-03T01:41:36.600Z,8.2
2018-12-03T01:42:36.498Z,8.1
2018-12-03T01:43:36.385Z,8.2
2018-12-03T01:44:36.295Z,8.2
2018-12-03T01:45:36.180Z,8.1
2018-12-03T01:46:36.067Z,8.2
2018-12-03T01:47:35.974Z,8.1
2018-12-03T01:48:35.886Z,8.1
2018-12-03T01:49:35.782Z,8.1
2018-12-03T01:50:35.656Z,8.1
2018-12-03T01:51:35.952Z,8.1
2018-12-03T01:52:35.848Z,8.1
2018-12-03T01:53:35.739Z,8
2018-12-03T01:54:35.619Z,8.1
2018-12-03T01:55:35.494Z,8.1
2018-12-03T01:56:35.389Z,8.1
2018-12-03T01:57:35.300Z,8.1
2018-12-03T01:58:35.193Z,8.1
2018-12-03T01:59:35.083Z,8.1
2018-12-03T02:00:35.025Z,8.1
2018-12-03T02:01:35.410Z,8.1
2018-12-03T02:02:35.320Z,8
2018-12-03T02:03:35.202Z,8.1
2018-12-03T02:04:35.127Z,8.1
2018-12-03T02:05:35.021Z,8
2018-12-03T02:06:34.896Z,8
2018-12-03T02:07:34.791Z,8
2018-12-03T02:08:34.682Z,8
2018-12-03T02:09:34.555Z,8
2018-12-03T02:10:34.443Z,8
2018-12-03T02:11:34.722Z,8
2018-12-03T02:12:34.624Z,8
2018-12-03T02:13:34.505Z,8
2018-12-03T02:14:34.380Z,8
2018-12-03T02:15:34.261Z,8
2018-12-03T02:16:34.147Z,8
2018-12-03T02:17:34.050Z,8
2018-12-03T02:18:33.928Z,8.1
2018-12-03T02:19:33.818Z,8
2018-12-03T02:20:33.704Z,8
2018-12-03T02:21:34.004Z,8
2018-12-03T02:22:33.884Z,8
2018-12-03T02:23:33.851Z,8
2018-12-03T02:24:33.730Z,8
2018-12-03T02:25:33.617Z,8
2018-12-03T02:26:33.485Z,8
2018-12-03T02:27:33.371Z,8.1
2018-12-03T02:28:33.313Z,8.1
2018-12-03T02:29:33.189Z,8
2018-12-03T02:30:33.069Z,8
2018-12-03T02:31:33.381Z,8
2018-12-03T02:32:33.284Z,8.1
2018-12-03T02:33:33.178Z,8.1
2018-12-03T02:34:33.095Z,8.1
2018-12-03T02:35:32.973Z,8.1
2018-12-03T02:36:32.863Z,8.1
2018-12-03T02:37:32.784Z,8.1
2018-12-03T02:38:32.704Z,8.1
2018-12-03T02:39:32.627Z,8.1
2018-12-03T02:40:32.528Z,8.2
2018-12-03T02:41:32.843Z,8.2
2018-12-03T02:42:32.741Z,8.2
2018-12-03T02:43:32.629Z,8.2
2018-12-03T02:44:32.509Z,8.2
2018-12-03T02:45:32.428Z,8.2
2018-12-03T02:46:32.299Z,8.2
2018-12-03T02:47:32.180Z,8.2
2018-12-03T02:48:32.082Z,8.2
2018-12-03T02:49:31.955Z,8.2
2018-12-03T02:50:31.850Z,8.2
2018-12-03T02:51:32.191Z,8.2
2018-12-03T02:52:32.064Z,8.1
2018-12-03T02:53:31.945Z,8.1
2018-12-03T02:54:31.839Z,8.1
2018-12-03T02:55:31.739Z,8.1
2018-12-03T02:56:31.615Z,8.1
2018-12-03T02:57:31.514Z,8.1
2018-12-03T02:58:31.430Z,8.1
2018-12-03T02:59:31.295Z,8.1
2018-12-03T03:00:31.202Z,8.1
2018-12-03T03:01:31.517Z,8.1
2018-12-03T03:02:31.429Z,8.1
2018-12-03T03:03:31.311Z,8.1
2018-12-03T03:04:31.213Z,8.1
2018-12-03T03:05:31.133Z,8.1
2018-12-03T03:06:31.058Z,8.1
2018-12-03T03:07:30.956Z,8.1
2018-12-03T03:08:30.850Z,8.1
2018-12-03T03:09:30.764Z,8.1
2018-12-03T03:10:30.660Z,8.1
2018-12-03T03:11:30.976Z,8.1
2018-12-03T03:12:30.858Z,8.1
2018-12-03T03:13:30.747Z,8.1
2018-12-03T03:14:30.638Z,8.1
2018-12-03T03:15:30.550Z,8.1
2018-12-03T03:16:30.464Z,8.1
2018-12-03T03:17:30.348Z,8.1
2018-12-03T03:18:30.240Z,8.1
2018-12-03T03:19:30.193Z,8.1
2018-12-03T03:20:30.096Z,8.1
2018-12-03T03:21:30.452Z,8.1
2018-12-03T03:22:30.350Z,8.1
2018-12-03T03:23:30.244Z,8.2
2018-12-03T03:24:30.144Z,8.2
2018-12-03T03:25:30.062Z,8.2
2018-12-03T03:26:29.949Z,8.2
2018-12-03T03:27:29.853Z,8.2
2018-12-03T03:28:29.746Z,8.2
2018-12-03T03:29:29.651Z,8.2
2018-12-03T03:30:29.588Z,8.2
2018-12-03T03:31:29.952Z,8.2
2018-12-03T03:32:29.877Z,8.2
2018-12-03T03:33:29.793Z,8.2
2018-12-03T03:34:29.736Z,8.2
2018-12-03T03:35:29.633Z,8.2
2018-12-03T03:36:29.526Z,8.1
2018-12-03T03:37:29.436Z,8.2
2018-12-03T03:38:29.315Z,8.2
2018-12-03T03:39:29.221Z,8.2
2018-12-03T03:40:29.131Z,8.2
2018-12-03T03:41:29.454Z,8.2
2018-12-03T03:42:29.340Z,8.2
2018-12-03T03:43:29.229Z,8.1
2018-12-03T03:44:29.107Z,8.2
2018-12-03T03:45:29.004Z,8.2
2018-12-03T03:46:28.909Z,8.1
2018-12-03T03:47:28.806Z,8.2
2018-12-03T03:48:28.704Z,8.2
2018-12-03T03:49:28.593Z,8.2
2018-12-03T03:50:28.489Z,8.2
2018-12-03T03:51:28.814Z,8.2
2018-12-03T03:52:28.688Z,8.2
2018-12-03T03:53:28.569Z,8.2
2018-12-03T03:54:28.469Z,8.2
2018-12-03T03:55:28.401Z,8.3
2018-12-03T03:56:28.288Z,8.3
2018-12-03T03:57:28.164Z,8.3
2018-12-03T03:58:28.071Z,8.2
2018-12-03T03:59:27.971Z,8.2
2018-12-03T04:00:27.878Z,8.3
2018-12-03T04:01:28.244Z,8.2
2018-12-03T04:02:28.132Z,8.2
2018-12-03T04:03:28.011Z,8.2
2018-12-03T04:04:27.902Z,8.2
2018-12-03T04:05:27.804Z,8.3
2018-12-03T04:06:27.734Z,8.3
2018-12-03T04:07:27.628Z,8.3
2018-12-03T04:08:27.525Z,8.3
2018-12-03T04:09:27.409Z,8.3
2018-12-03T04:10:27.305Z,8.3
2018-12-03T04:11:27.644Z,8.3
2018-12-03T04:12:27.549Z,8.3
2018-12-03T04:13:27.423Z,8.3
2018-12-03T04:14:27.314Z,8.3
2018-12-03T04:15:27.195Z,8.3
2018-12-03T04:16:27.068Z,8.3
2018-12-03T04:17:26.966Z,8.3
2018-12-03T04:18:26.868Z,8.2
2018-12-03T04:19:26.740Z,8.2
2018-12-03T04:20:26.634Z,8.2
2018-12-03T04:21:26.948Z,8.2
2018-12-03T04:22:26.855Z,8.2
2018-12-03T04:23:26.754Z,8.2
2018-12-03T04:24:26.652Z,8.2
2018-12-03T04:25:26.537Z,8.2
2018-12-03T04:26:26.421Z,8.2
2018-12-03T04:27:26.304Z,8.2
2018-12-03T04:28:26.245Z,8.2
2018-12-03T04:29:26.130Z,8.1
2018-12-03T04:30:26.045Z,8.1
2018-12-03T04:31:26.370Z,8.1
2018-12-03T04:32:26.237Z,8.2
2018-12-03T04:33:26.120Z,8.2
2018-12-03T04:34:26.006Z,8.2
2018-12-03T04:35:25.895Z,8.2
2018-12-03T04:36:25.783Z,8.2
2018-12-03T04:37:25.672Z,8.2
2018-12-03T04:38:25.563Z,8.2
2018-12-03T04:39:25.466Z,8.2
2018-12-03T04:40:25.364Z,8.2
2018-12-03T04:41:25.679Z,8.2
2018-12-03T04:42:25.583Z,8.2
2018-12-03T04:43:25.483Z,8.3
2018-12-03T04:44:25.389Z,8.3
2018-12-03T04:45:25.276Z,8.3
2018-12-03T04:46:25.189Z,8.3
2018-12-03T04:47:25.073Z,8.3
2018-12-03T04:48:24.976Z,8.2
2018-12-03T04:49:24.897Z,8.2
2018-12-03T04:50:24.787Z,8.2
2018-12-03T04:51:25.163Z,8.2
2018-12-03T04:52:25.051Z,8.2
2018-12-03T04:53:24.924Z,8.2
2018-12-03T04:54:24.825Z,8.2
2018-12-03T04:55:24.726Z,8.2
2018-12-03T04:56:24.629Z,8.2
2018-12-03T04:57:24.518Z,8.2
2018-12-03T04:58:24.403Z,8.2
2018-12-03T04:59:24.276Z,8.2
2018-12-03T05:00:24.171Z,8.2
2018-12-03T05:01:24.500Z,8.1
2018-12-03T05:02:24.379Z,8.1
2018-12-03T05:03:24.274Z,8.2
2018-12-03T05:04:24.159Z,8.2
2018-12-03T05:05:24.068Z,8.2
2018-12-03T05:06:23.955Z,8.2
2018-12-03T05:07:23.857Z,8.2
2018-12-03T05:08:23.740Z,8.2
2018-12-03T05:09:23.620Z,8.1
2018-12-03T05:10:23.516Z,8.1
2018-12-03T05:11:23.885Z,8.1
2018-12-03T05:12:23.758Z,8.1
2018-12-03T05:13:23.646Z,8
2018-12-03T05:14:23.536Z,8
2018-12-03T05:15:23.427Z,8
2018-12-03T05:16:23.340Z,8
2018-12-03T05:17:23.227Z,8
2018-12-03T05:18:23.102Z,8
2018-12-03T05:19:22.983Z,8
2018-12-03T05:20:22.879Z,8
2018-12-03T05:21:23.214Z,7.9
2018-12-03T05:22:23.125Z,7.9
2018-12-03T05:23:23.012Z,7.9
2018-12-03T05:24:22.938Z,7.8
2018-12-03T05:25:22.860Z,7.9
2018-12-03T05:26:22.746Z,7.8
2018-12-03T05:27:22.654Z,7.8
2018-12-03T05:28:22.550Z,7.8
2018-12-03T05:29:22.429Z,7.8
2018-12-03T05:30:22.323Z,7.8
2018-12-03T05:31:22.630Z,7.8
2018-12-03T05:32:22.517Z,7.8
2018-12-03T05:33:22.479Z,7.8
2018-12-03T05:34:22.396Z,7.8
2018-12-03T05:35:22.305Z,7.8
2018-12-03T05:36:22.201Z,7.8
2018-12-03T05:37:26.077Z,7.8
2018-12-03T05:38:25.987Z,7.8
2018-12-03T05:39:25.881Z,7.8
2018-12-03T05:40:25.765Z,7.8
2018-12-03T05:41:26.094Z,7.7
2018-12-03T05:42:25.976Z,7.7
2018-12-03T05:43:25.875Z,7.7
2018-12-03T05:44:25.748Z,7.7
2018-12-03T05:45:25.692Z,7.8
2018-12-03T05:46:25.574Z,7.8
2018-12-03T05:47:25.459Z,7.9
2018-12-03T05:48:25.374Z,7.9
2018-12-03T05:49:25.291Z,8
2018-12-03T05:50:25.159Z,8
2018-12-03T05:51:25.452Z,8
2018-12-03T05:52:25.357Z,8
2018-12-03T05:53:25.238Z,8
2018-12-03T05:54:25.142Z,8
2018-12-03T05:55:25.013Z,8.1
2018-12-03T05:56:24.891Z,8.1
2018-12-03T05:57:24.772Z,8.1
2018-12-03T05:58:24.662Z,8.1
2018-12-03T05:59:24.569Z,8.1
2018-12-03T06:00:24.461Z,8
2018-12-03T06:01:24.761Z,8
2018-12-03T06:02:24.636Z,8
2018-12-03T06:03:24.527Z,8
2018-12-03T06:04:24.417Z,8
2018-12-03T06:05:24.303Z,7.9
2018-12-03T06:06:24.207Z,7.9
2018-12-03T06:07:24.087Z,7.8
2018-12-03T06:08:23.973Z,7.8
2018-12-03T06:09:23.866Z,7.8
2018-12-03T06:10:23.757Z,7.8
2018-12-03T06:11:24.047Z,7.8
2018-12-03T06:12:23.949Z,7.7
2018-12-03T06:13:23.860Z,7.8
2018-12-03T06:14:23.733Z,7.8
2018-12-03T06:15:23.663Z,7.8
2018-12-03T06:16:23.535Z,7.8
2018-12-03T06:17:23.431Z,7.8
2018-12-03T06:19:23.073Z,7.9
2018-12-03T06:20:22.973Z,7.9
2018-12-03T06:21:23.293Z,7.9
2018-12-03T06:22:23.187Z,8
2018-12-03T06:23:23.082Z,8
2018-12-03T06:24:23.023Z,8.1
2018-12-03T06:25:22.922Z,8.1
2018-12-03T06:26:22.825Z,8.1
2018-12-03T06:27:22.700Z,8.1
2018-12-03T06:28:22.593Z,8.2
2018-12-03T06:29:22.469Z,8.2
2018-12-03T06:30:22.367Z,8.2
2018-12-03T06:31:22.657Z,8.2
2018-12-03T06:32:22.531Z,8.2
2018-12-03T06:33:22.488Z,8.2
2018-12-03T06:34:22.376Z,8.3
2018-12-03T06:35:22.279Z,8.2
2018-12-03T06:36:22.178Z,9.2
2018-12-03T06:37:22.071Z,8.4
2018-12-03T06:38:21.962Z,8.5
2018-12-03T06:39:21.861Z,8.4
2018-12-03T06:40:21.767Z,8.4
2018-12-03T06:41:22.085Z,8.4
2018-12-03T06:42:22.014Z,8.3
2018-12-03T06:43:21.907Z,8.3
2018-12-03T06:44:21.792Z,8.3
2018-12-03T06:45:21.681Z,8.3
2018-12-03T06:46:21.598Z,8.2
2018-12-03T06:47:21.484Z,8.2
2018-12-03T06:48:21.384Z,8.1
2018-12-03T06:49:21.262Z,8.1
2018-12-03T06:50:21.146Z,8
2018-12-03T06:51:21.478Z,8
2018-12-03T06:52:21.351Z,8
2018-12-03T06:53:21.243Z,8
2018-12-03T06:54:21.132Z,8
2018-12-03T06:55:21.004Z,8
2018-12-03T06:56:20.910Z,8
2018-12-03T06:57:20.788Z,8
2018-12-03T06:58:20.672Z,8
2018-12-03T06:59:20.566Z,8
2018-12-03T07:00:20.472Z,8
2018-12-03T07:01:20.794Z,8.1
2018-12-03T07:02:20.689Z,8.1
2018-12-03T07:03:20.614Z,8.1
2018-12-03T07:04:20.520Z,8.1
2018-12-03T07:05:20.411Z,8.1
2018-12-03T07:06:20.331Z,8.1
2018-12-03T07:07:20.228Z,8.1
2018-12-03T07:08:20.137Z,8.1
2018-12-03T07:09:20.001Z,8.1
2018-12-03T07:10:19.932Z,8.1
2018-12-03T07:11:20.255Z,8.1
2018-12-03T07:12:20.143Z,8.1
2018-12-03T07:13:20.069Z,8.1
2018-12-03T07:14:19.956Z,8.1
2018-12-03T07:15:19.852Z,8.1
2018-12-03T07:16:19.747Z,8.1
2018-12-03T07:17:19.636Z,8.1
2018-12-03T07:18:19.526Z,8.1
2018-12-03T07:19:19.423Z,8.1
2018-12-03T07:20:19.314Z,8.1
2018-12-03T07:21:19.629Z,8.1
2018-12-03T07:22:19.526Z,8.1
2018-12-03T07:23:19.433Z,8.1
2018-12-03T07:24:19.347Z,8.2
2018-12-03T07:25:19.231Z,8.2
2018-12-03T07:26:19.123Z,8.1
2018-12-03T07:27:20.287Z,8.2
2018-12-03T07:28:20.193Z,8.2
2018-12-03T07:29:20.097Z,8.2
2018-12-03T07:30:20.016Z,8.1
2018-12-03T07:31:20.324Z,8.2
2018-12-03T07:32:20.201Z,8.2
2018-12-03T07:33:20.093Z,8.2
2018-12-03T07:34:20.011Z,8.2
2018-12-03T07:35:19.891Z,8.2
2018-12-03T07:36:19.789Z,8.3
2018-12-03T07:37:19.670Z,8.3
2018-12-03T07:38:19.553Z,8.3
2018-12-03T07:39:19.425Z,8.2
2018-12-03T07:40:19.341Z,8.2
2018-12-03T07:41:19.641Z,8.2
2018-12-03T07:42:19.505Z,8.3
2018-12-03T07:43:19.385Z,8.3
2018-12-03T07:44:19.273Z,8.3
2018-12-03T07:45:19.164Z,8.3
2018-12-03T07:46:19.080Z,8.3
2018-12-03T07:47:18.967Z,8.3
2018-12-03T07:48:18.859Z,8.3
2018-12-03T07:49:18.770Z,8.3
2018-12-03T07:50:18.712Z,8.3
2018-12-03T07:51:19.051Z,8.3
2018-12-03T07:52:18.931Z,8.3
2018-12-03T07:53:18.807Z,8.3
2018-12-03T07:54:18.665Z,8.4
2018-12-03T07:55:18.542Z,8.4
2018-12-03T07:56:18.443Z,8.4
2018-12-03T07:57:18.335Z,8.4
2018-12-03T07:58:18.229Z,8.4
2018-12-03T07:59:18.133Z,8.4
2018-12-03T08:00:18.034Z,8.4
2018-12-03T08:01:18.389Z,8.4
2018-12-03T08:02:18.290Z,8.4
2018-12-03T08:03:18.178Z,8.5
2018-12-03T08:04:18.078Z,8.5
2018-12-03T08:05:17.957Z,8.5
2018-12-03T08:06:17.866Z,8.5
2018-12-03T08:07:17.737Z,8.5
2018-12-03T08:08:17.617Z,8.5
2018-12-03T08:09:17.515Z,8.5
2018-12-03T08:10:17.389Z,8.5
2018-12-03T08:11:17.721Z,8.5
2018-12-03T08:12:17.617Z,8.6
2018-12-03T08:13:17.488Z,8.6
2018-12-03T08:14:17.371Z,8.6
2018-12-03T08:15:17.271Z,8.6
2018-12-03T08:16:17.173Z,8.6
2018-12-03T08:17:17.057Z,8.6
2018-12-03T08:18:16.960Z,8.6
2018-12-03T08:19:16.886Z,8.7
2018-12-03T08:20:16.774Z,8.7
2018-12-03T08:21:17.140Z,8.7
2018-12-03T08:22:17.038Z,8.7
2018-12-03T08:23:16.933Z,8.7
2018-12-03T08:24:16.805Z,8.7
2018-12-03T08:25:16.685Z,8.8
2018-12-03T08:26:16.569Z,8.8
2018-12-03T08:27:16.466Z,8.8
2018-12-03T08:28:16.352Z,8.8
2018-12-03T08:29:16.230Z,8.8
2018-12-03T08:30:16.104Z,8.9
2018-12-03T08:31:16.438Z,8.9
2018-12-03T08:32:16.340Z,8.9
2018-12-03T08:33:16.232Z,8.9
2018-12-03T08:34:16.128Z,8.9
2018-12-03T08:35:16.020Z,9
2018-12-03T08:36:15.905Z,9
2018-12-03T08:37:15.812Z,9
2018-12-03T08:38:15.692Z,9
2018-12-03T08:39:15.590Z,9
2018-12-03T08:40:15.527Z,9
2018-12-03T08:41:16.031Z,9
2018-12-03T08:42:15.982Z,9.1
2018-12-03T08:43:15.863Z,9.1
2018-12-03T08:44:15.753Z,9.1
2018-12-03T08:45:16.646Z,9.2
2018-12-03T08:46:16.533Z,9.2
2018-12-03T08:47:16.436Z,9.3
2018-12-03T08:48:16.342Z,9.3
2018-12-03T08:49:17.218Z,9.4
2018-12-03T08:50:17.111Z,9.5
2018-12-03T08:51:17.454Z,9.5
2018-12-03T08:52:17.345Z,9.6
2018-12-03T08:53:17.250Z,9.6
2018-12-03T08:54:17.132Z,9.6
2018-12-03T08:55:17.022Z,9.7
2018-12-03T08:56:16.928Z,9.7
2018-12-03T08:57:16.803Z,9.7
2018-12-03T08:58:16.739Z,9.7
2018-12-03T08:59:16.626Z,9.7
2018-12-03T09:00:16.513Z,9.6
2018-12-03T09:01:16.850Z,9.6
2018-12-03T09:02:16.736Z,9.6
2018-12-03T09:03:16.632Z,9.7
2018-12-03T09:04:16.544Z,9.7
2018-12-03T09:05:16.428Z,9.7
2018-12-03T09:06:16.338Z,9.6
2018-12-03T09:07:16.234Z,9.6
2018-12-03T09:08:16.118Z,9.6
2018-12-03T09:09:16.031Z,9.6
2018-12-03T09:10:15.926Z,9.5
2018-12-03T09:11:16.246Z,9.5
2018-12-03T09:12:16.132Z,9.6
2018-12-03T09:13:16.036Z,9.6
2018-12-03T09:14:15.951Z,9.6
2018-12-03T09:15:15.837Z,9.6
2018-12-03T09:16:15.727Z,9.6
2018-12-03T09:17:15.624Z,9.6
2018-12-03T09:18:15.500Z,9.6
2018-12-03T09:19:15.388Z,9.6
2018-12-03T09:20:15.310Z,9.5
2018-12-03T09:21:15.606Z,9.5
2018-12-03T09:22:15.490Z,9.5
2018-12-03T09:23:15.385Z,9.5
2018-12-03T09:24:15.286Z,9.5
2018-12-03T09:25:15.171Z,9.4
2018-12-03T09:26:15.057Z,9.5
2018-12-03T09:27:14.934Z,9.5
2018-12-03T09:28:14.823Z,9.5
2018-12-03T09:29:14.702Z,9.4
2018-12-03T09:30:14.643Z,9.4
2018-12-03T09:31:14.965Z,9.4
2018-12-03T09:32:14.884Z,9.5
2018-12-03T09:33:14.815Z,9.5
2018-12-03T09:34:14.709Z,9.5
2018-12-03T09:35:14.601Z,9.5
2018-12-03T09:36:14.527Z,9.6
2018-12-03T09:37:14.413Z,9.7
2018-12-03T09:38:14.296Z,9.7
2018-12-03T09:39:14.178Z,9.8
2018-12-03T09:40:14.056Z,9.8
2018-12-03T09:41:14.403Z,9.9
2018-12-03T09:42:14.325Z,9.9
2018-12-03T09:43:14.223Z,9.9
2018-12-03T09:44:14.111Z,9.9
2018-12-03T09:45:14.009Z,10
2018-12-03T09:46:13.936Z,10
2018-12-03T09:47:13.829Z,10.1
2018-12-03T09:48:13.721Z,10.1
2018-12-03T09:49:13.599Z,10.2
2018-12-03T09:50:13.487Z,10.2
2018-12-03T09:51:13.759Z,10.2
2018-12-03T09:52:13.673Z,10.2
2018-12-03T09:53:13.547Z,10.2
2018-12-03T09:54:13.452Z,10.2
2018-12-03T09:55:13.325Z,10.2
2018-12-03T09:56:13.262Z,10.1
2018-12-03T09:57:13.151Z,10.1
2018-12-03T09:58:13.053Z,10
2018-12-03T09:59:12.935Z,10
2018-12-03T10:00:12.813Z,10
2018-12-03T10:01:13.127Z,9.9
2018-12-03T10:02:13.025Z,9.9
2018-12-03T10:03:12.930Z,9.8
2018-12-03T10:04:12.820Z,9.9
2018-12-03T10:05:12.719Z,9.9
2018-12-03T10:06:12.619Z,9.9
2018-12-03T10:07:12.532Z,9.9
2018-12-03T10:08:12.425Z,9.8
2018-12-03T10:09:12.324Z,9.9
2018-12-03T10:10:12.214Z,9.9
2018-12-03T10:11:12.529Z,9.9
2018-12-03T10:12:18.095Z,9.9
2018-12-03T10:13:18.192Z,9.9
2018-12-03T10:14:18.073Z,9.9
2018-12-03T10:15:17.954Z,9.9
2018-12-03T10:16:17.836Z,10
2018-12-03T10:17:17.743Z,10
2018-12-03T10:18:17.635Z,10
2018-12-03T10:19:17.549Z,10
2018-12-03T10:20:17.443Z,10
2018-12-03T10:21:17.771Z,10
2018-12-03T10:22:17.701Z,10.1
2018-12-03T10:23:17.627Z,10.1
2018-12-03T10:24:17.519Z,10.1
2018-12-03T10:25:17.415Z,10.1
2018-12-03T10:26:17.319Z,10.1
2018-12-03T10:27:17.229Z,10.1
2018-12-03T10:28:17.122Z,10.1
2018-12-03T10:29:17.008Z,10.2
2018-12-03T10:30:16.919Z,10.2
2018-12-03T10:31:17.232Z,10.2
2018-12-03T10:32:17.113Z,10.2
2018-12-03T10:33:17.017Z,10.3
2018-12-03T10:34:16.895Z,10.4
2018-12-03T10:35:16.763Z,10.4
2018-12-03T10:36:16.668Z,10.4
2018-12-03T10:37:16.557Z,10.5
2018-12-03T10:38:16.451Z,10.5
2018-12-03T10:39:16.349Z,10.6
2018-12-03T10:40:16.232Z,10.7
2018-12-03T10:41:16.546Z,10.7
2018-12-03T10:42:16.433Z,10.8
2018-12-03T10:43:16.333Z,10.9
2018-12-03T10:44:16.233Z,11
2018-12-03T10:45:16.108Z,11.1
2018-12-03T10:46:15.994Z,11.2
2018-12-03T10:47:15.885Z,11.2
2018-12-03T10:48:15.776Z,11.3
2018-12-03T10:49:15.692Z,11.2
2018-12-03T10:50:15.570Z,11.3
2018-12-03T10:51:15.872Z,11.3
2018-12-03T10:52:15.747Z,11.3
2018-12-03T10:53:15.635Z,11.3
2018-12-03T10:54:15.534Z,11.3
2018-12-03T10:55:15.430Z,11.4
2018-12-03T10:56:15.298Z,11.4
2018-12-03T10:57:15.178Z,11.5
2018-12-03T10:58:15.097Z,11.5
2018-12-03T10:59:14.999Z,11.6
2018-12-03T11:00:14.919Z,11.7
2018-12-03T11:01:15.242Z,11.8
2018-12-03T11:02:15.110Z,11.9
2018-12-03T11:03:14.987Z,11.9
2018-12-03T11:04:14.871Z,12
2018-12-03T11:05:14.791Z,12.1
2018-12-03T11:06:14.696Z,12.1
2018-12-03T11:07:14.589Z,12.2
2018-12-03T11:08:14.505Z,12.2
2018-12-03T11:09:14.401Z,12.2
2018-12-03T11:10:14.295Z,12.2
2018-12-03T11:11:14.629Z,12.3
2018-12-03T11:12:14.512Z,12.3
2018-12-03T11:13:14.394Z,12.4
2018-12-03T11:14:14.286Z,12.4
2018-12-03T11:15:14.204Z,12.4
2018-12-03T11:16:14.085Z,12.4
2018-12-03T11:17:13.983Z,12.4
2018-12-03T11:18:13.866Z,12.4
2018-12-03T11:19:13.759Z,12.4
2018-12-03T11:20:13.629Z,12.4
2018-12-03T11:21:14.027Z,12.4
2018-12-03T11:22:13.904Z,12.4
2018-12-03T11:23:13.796Z,12.4
2018-12-03T11:24:13.695Z,12.4
2018-12-03T11:25:13.582Z,12.4
2018-12-03T11:26:13.516Z,12.4
2018-12-03T11:27:13.415Z,12.4
2018-12-03T11:28:13.303Z,12.4
2018-12-03T11:29:13.175Z,12.4
2018-12-03T11:30:13.061Z,12.5
2018-12-03T11:31:13.391Z,12.5
2018-12-03T11:32:13.283Z,12.6
2018-12-03T11:33:13.173Z,12.6
2018-12-03T11:34:13.081Z,12.6
2018-12-03T11:35:12.966Z,12.6
2018-12-03T11:36:12.889Z,12.6
2018-12-03T11:37:12.788Z,12.7
2018-12-03T11:38:12.685Z,12.6
2018-12-03T11:39:12.597Z,12.6
2018-12-03T11:40:12.487Z,12.6
2018-12-03T11:41:12.836Z,12.7
2018-12-03T11:42:12.745Z,12.7
2018-12-03T11:43:12.631Z,12.7
2018-12-03T11:44:12.522Z,12.7
2018-12-03T11:45:12.405Z,12.7
2018-12-03T11:46:12.291Z,12.7
2018-12-03T11:47:12.207Z,12.8
2018-12-03T11:48:12.101Z,12.8
2018-12-03T11:49:12.017Z,12.8
2018-12-03T11:50:11.904Z,12.9
2018-12-03T11:51:12.229Z,12.8
2018-12-03T11:52:12.168Z,12.8
2018-12-03T11:53:12.051Z,12.8
2018-12-03T11:54:11.932Z,12.9
2018-12-03T11:55:11.838Z,12.9
2018-12-03T11:56:11.723Z,12.9
2018-12-03T11:57:11.610Z,12.9
2018-12-03T11:58:11.502Z,12.9
2018-12-03T11:59:11.390Z,12.9
2018-12-03T12:00:11.292Z,12.9
2018-12-03T12:01:11.624Z,13
2018-12-03T12:02:11.539Z,13
2018-12-03T12:03:11.462Z,13
2018-12-03T12:04:11.354Z,13
2018-12-03T12:05:11.243Z,13
2018-12-03T12:06:11.127Z,13.1
2018-12-03T12:07:11.060Z,13.1
2018-12-03T12:08:10.980Z,13.2
2018-12-03T12:09:10.917Z,13.2
2018-12-03T12:10:10.820Z,13.2
2018-12-03T12:11:11.207Z,13.2
2018-12-03T12:12:11.114Z,13.2
2018-12-03T12:13:11.027Z,13.2
2018-12-03T12:14:10.932Z,13.2
2018-12-03T12:15:10.828Z,13.2
2018-12-03T12:16:10.719Z,13.2
2018-12-03T12:17:10.623Z,13.3
2018-12-03T12:18:10.500Z,13.3
2018-12-03T12:19:10.408Z,13.3
2018-12-03T12:20:10.314Z,13.3
2018-12-03T12:21:10.687Z,13.3
2018-12-03T12:22:10.598Z,13.3
2018-12-03T12:23:10.486Z,13.3
2018-12-03T12:24:10.371Z,13.3
2018-12-03T12:25:10.279Z,13.3
2018-12-03T12:26:10.224Z,13.3
2018-12-03T12:27:12.706Z,13.3
2018-12-03T12:28:12.602Z,13.3
2018-12-03T12:29:12.474Z,13.3
2018-12-03T12:30:12.392Z,13.3
2018-12-03T12:31:12.728Z,13.2
2018-12-03T12:32:12.647Z,13.2
2018-12-03T12:33:12.544Z,13.2
2018-12-03T12:34:12.437Z,13.2
2018-12-03T12:35:12.348Z,13.2
2018-12-03T12:36:12.242Z,13.1
2018-12-03T12:37:14.970Z,13.1
2018-12-03T12:38:14.875Z,13
2018-12-03T12:39:14.786Z,13
2018-12-03T12:40:14.725Z,13
2018-12-03T12:41:15.020Z,13
2018-12-03T12:42:14.917Z,13
2018-12-03T12:43:14.796Z,13
2018-12-03T12:44:14.685Z,13
2018-12-03T12:45:14.583Z,12.9
2018-12-03T12:46:14.481Z,12.9
2018-12-03T12:47:14.393Z,12.9
2018-12-03T12:48:14.291Z,12.8
2018-12-03T12:49:14.184Z,12.8
2018-12-03T12:50:14.078Z,12.8
2018-12-03T12:51:14.461Z,12.8
2018-12-03T12:52:14.417Z,12.9
2018-12-03T12:53:14.329Z,12.8
2018-12-03T12:54:14.217Z,12.8
2018-12-03T12:55:14.165Z,12.8
2018-12-03T12:56:14.073Z,12.8
2018-12-03T12:57:13.963Z,12.9
2018-12-03T12:58:13.858Z,12.8
2018-12-03T12:59:13.739Z,12.8
2018-12-03T13:00:13.635Z,12.8
2018-12-03T13:01:13.965Z,12.9
2018-12-03T13:02:13.871Z,12.8
2018-12-03T13:03:13.791Z,12.9
2018-12-03T13:04:13.665Z,12.9
2018-12-03T13:05:13.549Z,12.9
2018-12-03T13:06:13.474Z,12.9
2018-12-03T13:07:13.395Z,12.9
2018-12-03T13:08:13.289Z,12.9
2018-12-03T13:09:13.187Z,12.8
2018-12-03T13:10:13.089Z,12.8
2018-12-03T13:11:13.429Z,12.8
2018-12-03T13:12:13.327Z,12.8
2018-12-03T13:13:13.213Z,12.8
2018-12-03T13:14:13.111Z,12.8
2018-12-03T13:15:12.989Z,12.9
2018-12-03T13:16:12.899Z,12.9
2018-12-03T13:17:12.791Z,12.8
2018-12-03T13:18:12.674Z,12.8
2018-12-03T13:19:12.580Z,12.8
2018-12-03T13:20:12.481Z,12.8
2018-12-03T13:21:12.776Z,12.8
2018-12-03T13:22:12.699Z,12.8
2018-12-03T13:23:12.597Z,12.8
2018-12-03T13:24:12.488Z,12.8
2018-12-03T13:25:12.392Z,12.8
2018-12-03T13:26:12.285Z,12.9
2018-12-03T13:27:12.183Z,12.9
2018-12-03T13:28:12.096Z,13
2018-12-03T13:29:12.002Z,13
2018-12-03T13:30:11.923Z,13.1
2018-12-03T13:31:12.317Z,13.1
2018-12-03T13:32:12.219Z,13.1
2018-12-03T13:33:12.136Z,13.2
2018-12-03T13:34:12.030Z,13.2
2018-12-03T13:35:11.936Z,13.2
2018-12-03T13:36:11.858Z,13.2
2018-12-03T13:37:11.760Z,13.2
2018-12-03T13:38:11.666Z,13.2
2018-12-03T13:39:11.587Z,13.1
2018-12-03T13:40:11.483Z,13.1
2018-12-03T13:41:11.812Z,13.1
2018-12-03T13:42:11.701Z,13
2018-12-03T13:43:11.589Z,13
2018-12-03T13:44:11.507Z,13
2018-12-03T13:45:11.437Z,13
2018-12-03T13:46:11.354Z,13
2018-12-03T13:47:11.265Z,13